sensor_id;sensor_type;location;lat;lon;timestamp;P1;durP1;ratioP1;P2;durP2;ratioP2
30872;SDS011;17579;42.690;2.586;2024-02-16T00:01:00;9.90;;;3.20;;
30872;SDS011;17579;42.690;2.586;2024-02-16T00:03:35;10.50;;;2.88;;
30872;SDS011;17579;42.690;2.586;2024-02-16T00:06:01;11.50;;;3.72;;
30872;SDS011;17579;42.690;2.586;2024-02-16T00:08:29;9.60;;;3.20;;
30872;SDS011;17579;42.690;2.586;2024-02-16T00:10:58;10.88;;;2.95;;
30872;SDS011;17579;42.690;2.586;2024-02-16T00:13:24;13.93;;;3.30;;
30872;SDS011;17579;42.690;2.586;2024-02-16T00:15:50;8.55;;;2.85;;
30872;SDS011;17579;42.690;2.586;2024-02-16T00:18:19;7.70;;;2.65;;
30872;SDS011;17579;42.690;2.586;2024-02-16T00:20:56;9.10;;;2.97;;
30872;SDS011;17579;42.690;2.586;2024-02-16T00:23:22;9.75;;;2.83;;
30872;SDS011;17579;42.690;2.586;2024-02-16T00:25:49;8.43;;;2.92;;
30872;SDS011;17579;42.690;2.586;2024-02-16T00:28:17;8.70;;;2.97;;
30872;SDS011;17579;42.690;2.586;2024-02-16T00:30:42;5.28;;;2.83;;
30872;SDS011;17579;42.690;2.586;2024-02-16T00:33:10;12.70;;;4.10;;
30872;SDS011;17579;42.690;2.586;2024-02-16T00:35:46;8.95;;;2.55;;
30872;SDS011;17579;42.690;2.586;2024-02-16T00:38:35;8.52;;;2.80;;
30872;SDS011;17579;42.690;2.586;2024-02-16T00:41:05;5.57;;;2.85;;
30872;SDS011;17579;42.690;2.586;2024-02-16T00:43:31;9.50;;;3.30;;
30872;SDS011;17579;42.690;2.586;2024-02-16T00:46:07;8.10;;;2.75;;
30872;SDS011;17579;42.690;2.586;2024-02-16T00:48:41;6.53;;;2.60;;
30872;SDS011;17579;42.690;2.586;2024-02-16T00:51:06;8.52;;;2.95;;
30872;SDS011;17579;42.690;2.586;2024-02-16T00:53:32;7.53;;;2.63;;
30872;SDS011;17579;42.690;2.586;2024-02-16T00:56:20;9.45;;;2.70;;
30872;SDS011;17579;42.690;2.586;2024-02-16T00:59:06;9.65;;;2.53;;
30872;SDS011;17579;42.690;2.586;2024-02-16T01:01:51;8.48;;;2.88;;
30872;SDS011;17579;42.690;2.586;2024-02-16T01:04:17;8.18;;;2.40;;
30872;SDS011;17579;42.690;2.586;2024-02-16T01:06:52;7.80;;;2.55;;
30872;SDS011;17579;42.690;2.586;2024-02-16T01:09:17;11.63;;;2.72;;
30872;SDS011;17579;42.690;2.586;2024-02-16T01:11:52;8.50;;;2.90;;
30872;SDS011;17579;42.690;2.586;2024-02-16T01:14:18;8.40;;;2.55;;
30872;SDS011;17579;42.690;2.586;2024-02-16T01:16:43;5.50;;;2.30;;
30872;SDS011;17579;42.690;2.586;2024-02-16T01:19:18;7.85;;;2.38;;
30872;SDS011;17579;42.690;2.586;2024-02-16T01:21:52;9.52;;;2.63;;
30872;SDS011;17579;42.690;2.586;2024-02-16T01:24:23;5.40;;;2.25;;
30872;SDS011;17579;42.690;2.586;2024-02-16T01:26:52;7.35;;;2.40;;
30872;SDS011;17579;42.690;2.586;2024-02-16T01:29:17;8.60;;;2.00;;
30872;SDS011;17579;42.690;2.586;2024-02-16T01:31:45;5.65;;;2.30;;
30872;SDS011;17579;42.690;2.586;2024-02-16T01:34:13;7.43;;;2.45;;
30872;SDS011;17579;42.690;2.586;2024-02-16T01:36:41;6.85;;;2.30;;
30872;SDS011;17579;42.690;2.586;2024-02-16T01:39:07;7.38;;;2.30;;
30872;SDS011;17579;42.690;2.586;2024-02-16T01:41:38;6.93;;;2.35;;
30872;SDS011;17579;42.690;2.586;2024-02-16T01:44:06;8.05;;;2.47;;
30872;SDS011;17579;42.690;2.586;2024-02-16T01:46:43;8.23;;;2.40;;
30872;SDS011;17579;42.690;2.586;2024-02-16T01:49:11;6.95;;;2.20;;
30872;SDS011;17579;42.690;2.586;2024-02-16T01:51:40;8.30;;;2.20;;
30872;SDS011;17579;42.690;2.586;2024-02-16T01:54:15;10.43;;;3.10;;
30872;SDS011;17579;42.690;2.586;2024-02-16T01:56:55;6.90;;;2.40;;
30872;SDS011;17579;42.690;2.586;2024-02-16T01:59:30;7.45;;;2.33;;
30872;SDS011;17579;42.690;2.586;2024-02-16T02:02:08;3.42;;;2.10;;
30872;SDS011;17579;42.690;2.586;2024-02-16T02:04:33;5.95;;;2.35;;
30872;SDS011;17579;42.690;2.586;2024-02-16T02:07:10;9.95;;;2.65;;
30872;SDS011;17579;42.690;2.586;2024-02-16T02:09:47;10.00;;;2.50;;
30872;SDS011;17579;42.690;2.586;2024-02-16T02:12:12;7.78;;;2.25;;
30872;SDS011;17579;42.690;2.586;2024-02-16T02:14:38;9.88;;;2.55;;
30872;SDS011;17579;42.690;2.586;2024-02-16T02:17:07;8.50;;;2.85;;
30872;SDS011;17579;42.690;2.586;2024-02-16T02:19:41;9.45;;;2.85;;
30872;SDS011;17579;42.690;2.586;2024-02-16T02:22:19;8.55;;;2.90;;
30872;SDS011;17579;42.690;2.586;2024-02-16T02:24:47;10.90;;;2.83;;
30872;SDS011;17579;42.690;2.586;2024-02-16T02:27:20;9.23;;;2.72;;
30872;SDS011;17579;42.690;2.586;2024-02-16T02:30:00;6.22;;;2.28;;
30872;SDS011;17579;42.690;2.586;2024-02-16T02:32:28;8.80;;;2.50;;
30872;SDS011;17579;42.690;2.586;2024-02-16T02:35:04;7.38;;;2.70;;
30872;SDS011;17579;42.690;2.586;2024-02-16T02:37:48;7.35;;;2.33;;
30872;SDS011;17579;42.690;2.586;2024-02-16T02:40:17;7.35;;;2.65;;
30872;SDS011;17579;42.690;2.586;2024-02-16T02:42:43;6.70;;;2.38;;
30872;SDS011;17579;42.690;2.586;2024-02-16T02:45:09;12.15;;;3.03;;
30872;SDS011;17579;42.690;2.586;2024-02-16T02:47:43;9.20;;;3.10;;
30872;SDS011;17579;42.690;2.586;2024-02-16T02:50:11;8.07;;;2.53;;
30872;SDS011;17579;42.690;2.586;2024-02-16T02:52:37;6.25;;;2.65;;
30872;SDS011;17579;42.690;2.586;2024-02-16T02:55:05;8.60;;;2.90;;
30872;SDS011;17579;42.690;2.586;2024-02-16T02:57:34;8.35;;;2.90;;
30872;SDS011;17579;42.690;2.586;2024-02-16T03:00:06;6.10;;;2.00;;
30872;SDS011;17579;42.690;2.586;2024-02-16T03:02:36;7.10;;;2.40;;
30872;SDS011;17579;42.690;2.586;2024-02-16T03:05:06;8.95;;;2.35;;
30872;SDS011;17579;42.690;2.586;2024-02-16T03:07:52;7.20;;;2.75;;
30872;SDS011;17579;42.690;2.586;2024-02-16T03:10:27;9.40;;;3.30;;
30872;SDS011;17579;42.690;2.586;2024-02-16T03:12:57;7.00;;;2.70;;
30872;SDS011;17579;42.690;2.586;2024-02-16T03:15:32;9.57;;;2.88;;
30872;SDS011;17579;42.690;2.586;2024-02-16T03:17:58;8.32;;;3.45;;
30872;SDS011;17579;42.690;2.586;2024-02-16T03:20:36;7.63;;;2.72;;
30872;SDS011;17579;42.690;2.586;2024-02-16T03:23:02;7.43;;;3.20;;
30872;SDS011;17579;42.690;2.586;2024-02-16T03:25:34;7.75;;;3.00;;
30872;SDS011;17579;42.690;2.586;2024-02-16T03:28:18;12.43;;;2.40;;
30872;SDS011;17579;42.690;2.586;2024-02-16T03:31:03;6.18;;;2.97;;
30872;SDS011;17579;42.690;2.586;2024-02-16T03:33:32;7.75;;;2.30;;
30872;SDS011;17579;42.690;2.586;2024-02-16T03:36:17;8.85;;;2.80;;
30872;SDS011;17579;42.690;2.586;2024-02-16T03:38:44;8.82;;;2.50;;
30872;SDS011;17579;42.690;2.586;2024-02-16T03:41:19;8.75;;;2.47;;
30872;SDS011;17579;42.690;2.586;2024-02-16T03:43:49;8.20;;;2.88;;
30872;SDS011;17579;42.690;2.586;2024-02-16T03:46:15;9.45;;;3.15;;
30872;SDS011;17579;42.690;2.586;2024-02-16T03:48:46;5.53;;;2.42;;
30872;SDS011;17579;42.690;2.586;2024-02-16T03:51:12;7.60;;;3.20;;
30872;SDS011;17579;42.690;2.586;2024-02-16T03:53:40;8.52;;;3.28;;
30872;SDS011;17579;42.690;2.586;2024-02-16T03:56:05;5.88;;;2.30;;
30872;SDS011;17579;42.690;2.586;2024-02-16T03:58:35;6.00;;;2.90;;
30872;SDS011;17579;42.690;2.586;2024-02-16T04:01:07;5.40;;;2.80;;
30872;SDS011;17579;42.690;2.586;2024-02-16T04:03:35;6.65;;;3.08;;
30872;SDS011;17579;42.690;2.586;2024-02-16T04:06:01;7.93;;;3.70;;
30872;SDS011;17579;42.690;2.586;2024-02-16T04:08:29;8.57;;;3.10;;
30872;SDS011;17579;42.690;2.586;2024-02-16T04:11:05;5.78;;;3.13;;
30872;SDS011;17579;42.690;2.586;2024-02-16T04:13:39;7.07;;;3.03;;
30872;SDS011;17579;42.690;2.586;2024-02-16T04:16:30;7.82;;;3.47;;
30872;SDS011;17579;42.690;2.586;2024-02-16T04:19:00;8.48;;;3.10;;
30872;SDS011;17579;42.690;2.586;2024-02-16T04:21:32;9.35;;;3.55;;
30872;SDS011;17579;42.690;2.586;2024-02-16T04:23:58;7.97;;;3.85;;
30872;SDS011;17579;42.690;2.586;2024-02-16T04:26:25;5.95;;;3.20;;
30872;SDS011;17579;42.690;2.586;2024-02-16T04:28:56;9.00;;;4.20;;
30872;SDS011;17579;42.690;2.586;2024-02-16T04:31:22;6.57;;;3.97;;
30872;SDS011;17579;42.690;2.586;2024-02-16T04:33:47;7.68;;;3.42;;
30872;SDS011;17579;42.690;2.586;2024-02-16T04:36:22;8.10;;;3.45;;
30872;SDS011;17579;42.690;2.586;2024-02-16T04:38:48;10.35;;;3.78;;
30872;SDS011;17579;42.690;2.586;2024-02-16T04:41:21;8.98;;;2.97;;
30872;SDS011;17579;42.690;2.586;2024-02-16T04:43:47;4.35;;;2.90;;
30872;SDS011;17579;42.690;2.586;2024-02-16T04:46:21;7.65;;;2.45;;
30872;SDS011;17579;42.690;2.586;2024-02-16T04:49:00;6.55;;;2.45;;
30872;SDS011;17579;42.690;2.586;2024-02-16T04:51:39;8.15;;;3.20;;
30872;SDS011;17579;42.690;2.586;2024-02-16T04:54:08;7.20;;;2.80;;
30872;SDS011;17579;42.690;2.586;2024-02-16T04:56:46;6.55;;;2.67;;
30872;SDS011;17579;42.690;2.586;2024-02-16T04:59:11;9.32;;;2.97;;
30872;SDS011;17579;42.690;2.586;2024-02-16T05:02:03;7.43;;;2.63;;
30872;SDS011;17579;42.690;2.586;2024-02-16T05:04:29;5.63;;;2.50;;
30872;SDS011;17579;42.690;2.586;2024-02-16T05:07:17;6.28;;;2.88;;
30872;SDS011;17579;42.690;2.586;2024-02-16T05:09:54;7.82;;;2.35;;
30872;SDS011;17579;42.690;2.586;2024-02-16T05:12:38;5.47;;;2.72;;
30872;SDS011;17579;42.690;2.586;2024-02-16T05:15:04;6.68;;;3.47;;
30872;SDS011;17579;42.690;2.586;2024-02-16T05:17:37;6.78;;;2.90;;
30872;SDS011;17579;42.690;2.586;2024-02-16T05:20:10;5.25;;;2.47;;
30872;SDS011;17579;42.690;2.586;2024-02-16T05:22:54;5.97;;;3.03;;
30872;SDS011;17579;42.690;2.586;2024-02-16T05:25:22;6.35;;;2.65;;
30872;SDS011;17579;42.690;2.586;2024-02-16T05:27:49;7.63;;;3.00;;
30872;SDS011;17579;42.690;2.586;2024-02-16T05:30:21;7.50;;;3.28;;
30872;SDS011;17579;42.690;2.586;2024-02-16T05:32:59;6.57;;;2.55;;
30872;SDS011;17579;42.690;2.586;2024-02-16T05:35:28;6.60;;;2.85;;
30872;SDS011;17579;42.690;2.586;2024-02-16T05:38:04;6.28;;;2.58;;
30872;SDS011;17579;42.690;2.586;2024-02-16T05:40:38;7.10;;;2.63;;
30872;SDS011;17579;42.690;2.586;2024-02-16T05:43:18;6.85;;;2.47;;
30872;SDS011;17579;42.690;2.586;2024-02-16T05:46:02;9.15;;;2.88;;
30872;SDS011;17579;42.690;2.586;2024-02-16T05:48:30;8.45;;;3.20;;
30872;SDS011;17579;42.690;2.586;2024-02-16T05:50:57;5.22;;;2.83;;
30872;SDS011;17579;42.690;2.586;2024-02-16T05:53:26;6.78;;;3.35;;
30872;SDS011;17579;42.690;2.586;2024-02-16T05:55:58;6.40;;;3.28;;
30872;SDS011;17579;42.690;2.586;2024-02-16T05:58:24;8.98;;;3.60;;
30872;SDS011;17579;42.690;2.586;2024-02-16T06:00:54;4.13;;;2.75;;
30872;SDS011;17579;42.690;2.586;2024-02-16T06:03:19;6.03;;;2.90;;
30872;SDS011;17579;42.690;2.586;2024-02-16T06:05:50;6.85;;;3.65;;
30872;SDS011;17579;42.690;2.586;2024-02-16T06:08:16;5.45;;;3.05;;
30872;SDS011;17579;42.690;2.586;2024-02-16T06:10:42;8.77;;;3.35;;
30872;SDS011;17579;42.690;2.586;2024-02-16T06:13:19;6.13;;;3.50;;
30872;SDS011;17579;42.690;2.586;2024-02-16T06:15:46;6.78;;;3.58;;
30872;SDS011;17579;42.690;2.586;2024-02-16T06:18:12;7.55;;;3.75;;
30872;SDS011;17579;42.690;2.586;2024-02-16T06:20:40;7.80;;;3.90;;
30872;SDS011;17579;42.690;2.586;2024-02-16T06:23:15;7.00;;;3.75;;
30872;SDS011;17579;42.690;2.586;2024-02-16T06:25:44;7.57;;;4.28;;
30872;SDS011;17579;42.690;2.586;2024-02-16T06:28:16;7.70;;;4.10;;
30872;SDS011;17579;42.690;2.586;2024-02-16T06:30:41;7.38;;;4.68;;
30872;SDS011;17579;42.690;2.586;2024-02-16T06:33:15;8.00;;;5.38;;
30872;SDS011;17579;42.690;2.586;2024-02-16T06:35:51;10.98;;;4.97;;
30872;SDS011;17579;42.690;2.586;2024-02-16T06:38:46;13.55;;;6.90;;
30872;SDS011;17579;42.690;2.586;2024-02-16T06:41:12;10.82;;;6.72;;
30872;SDS011;17579;42.690;2.586;2024-02-16T06:43:44;10.68;;;6.88;;
30872;SDS011;17579;42.690;2.586;2024-02-16T06:46:10;14.07;;;6.47;;
30872;SDS011;17579;42.690;2.586;2024-02-16T06:48:38;13.15;;;5.90;;
30872;SDS011;17579;42.690;2.586;2024-02-16T06:51:04;10.95;;;5.35;;
30872;SDS011;17579;42.690;2.586;2024-02-16T06:53:32;10.93;;;5.40;;
30872;SDS011;17579;42.690;2.586;2024-02-16T06:56:04;8.98;;;5.28;;
30872;SDS011;17579;42.690;2.586;2024-02-16T06:58:30;9.23;;;4.80;;
30872;SDS011;17579;42.690;2.586;2024-02-16T07:01:21;8.05;;;4.63;;
30872;SDS011;17579;42.690;2.586;2024-02-16T07:04:05;6.35;;;4.28;;
30872;SDS011;17579;42.690;2.586;2024-02-16T07:06:37;7.75;;;4.38;;
30872;SDS011;17579;42.690;2.586;2024-02-16T07:09:03;7.45;;;4.40;;
30872;SDS011;17579;42.690;2.586;2024-02-16T07:11:31;7.13;;;4.57;;
30872;SDS011;17579;42.690;2.586;2024-02-16T07:13:59;11.32;;;4.97;;
30872;SDS011;17579;42.690;2.586;2024-02-16T07:16:38;7.43;;;4.50;;
30872;SDS011;17579;42.690;2.586;2024-02-16T07:19:06;9.20;;;4.60;;
30872;SDS011;17579;42.690;2.586;2024-02-16T07:21:31;8.20;;;3.97;;
30872;SDS011;17579;42.690;2.586;2024-02-16T07:24:00;3.80;;;2.70;;
30872;SDS011;17579;42.690;2.586;2024-02-16T07:26:31;3.20;;;2.08;;
30872;SDS011;17579;42.690;2.586;2024-02-16T07:29:11;1.73;;;1.45;;
30872;SDS011;17579;42.690;2.586;2024-02-16T07:31:41;1.30;;;1.10;;
30872;SDS011;17579;42.690;2.586;2024-02-16T07:34:09;0.70;;;0.70;;
30872;SDS011;17579;42.690;2.586;2024-02-16T07:36:43;1.10;;;0.60;;
30872;SDS011;17579;42.690;2.586;2024-02-16T07:39:09;1.40;;;0.80;;
30872;SDS011;17579;42.690;2.586;2024-02-16T07:41:39;0.52;;;0.52;;
30872;SDS011;17579;42.690;2.586;2024-02-16T07:44:08;0.88;;;0.60;;
30872;SDS011;17579;42.690;2.586;2024-02-16T07:47:06;0.40;;;0.40;;
30872;SDS011;17579;42.690;2.586;2024-02-16T07:49:30;0.70;;;0.60;;
30872;SDS011;17579;42.690;2.586;2024-02-16T07:52:30;0.40;;;0.40;;
30872;SDS011;17579;42.690;2.586;2024-02-16T07:54:56;0.40;;;0.40;;
30872;SDS011;17579;42.690;2.586;2024-02-16T07:57:24;0.30;;;0.30;;
30872;SDS011;17579;42.690;2.586;2024-02-16T07:59:52;0.30;;;0.30;;
30872;SDS011;17579;42.690;2.586;2024-02-16T08:02:20;0.55;;;0.28;;
30872;SDS011;17579;42.690;2.586;2024-02-16T08:04:51;0.30;;;0.30;;
30872;SDS011;17579;42.690;2.586;2024-02-16T08:07:16;0.50;;;0.30;;
30872;SDS011;17579;42.690;2.586;2024-02-16T08:09:48;0.30;;;0.30;;
30872;SDS011;17579;42.690;2.586;2024-02-16T08:12:14;0.55;;;0.20;;
30872;SDS011;17579;42.690;2.586;2024-02-16T08:14:48;0.10;;;0.10;;
30872;SDS011;17579;42.690;2.586;2024-02-16T08:17:32;0.10;;;0.10;;
30872;SDS011;17579;42.690;2.586;2024-02-16T08:20:16;0.20;;;0.20;;
30872;SDS011;17579;42.690;2.586;2024-02-16T08:22:41;0.30;;;0.30;;
30872;SDS011;17579;42.690;2.586;2024-02-16T08:25:07;0.20;;;0.20;;
30872;SDS011;17579;42.690;2.586;2024-02-16T08:27:42;0.15;;;0.15;;
30872;SDS011;17579;42.690;2.586;2024-02-16T08:30:08;0.20;;;0.20;;
30872;SDS011;17579;42.690;2.586;2024-02-16T08:32:36;0.65;;;0.20;;
30872;SDS011;17579;42.690;2.586;2024-02-16T08:35:08;0.30;;;0.30;;
30872;SDS011;17579;42.690;2.586;2024-02-16T08:37:44;0.68;;;0.20;;
30872;SDS011;17579;42.690;2.586;2024-02-16T08:40:19;0.10;;;0.10;;
30872;SDS011;17579;42.690;2.586;2024-02-16T08:42:45;0.10;;;0.10;;
30872;SDS011;17579;42.690;2.586;2024-02-16T08:45:20;0.20;;;0.20;;
30872;SDS011;17579;42.690;2.586;2024-02-16T08:47:51;0.15;;;0.15;;
30872;SDS011;17579;42.690;2.586;2024-02-16T08:50:21;0.10;;;0.10;;
30872;SDS011;17579;42.690;2.586;2024-02-16T08:52:47;0.20;;;0.20;;
30872;SDS011;17579;42.690;2.586;2024-02-16T08:55:18;0.10;;;0.10;;
30872;SDS011;17579;42.690;2.586;2024-02-16T08:57:50;0.10;;;0.10;;
30872;SDS011;17579;42.690;2.586;2024-02-16T09:00:27;0.20;;;0.20;;
30872;SDS011;17579;42.690;2.586;2024-02-16T09:02:57;0.10;;;0.10;;
30872;SDS011;17579;42.690;2.586;2024-02-16T09:05:26;0.05;;;0.03;;
30872;SDS011;17579;42.690;2.586;2024-02-16T09:07:51;0.13;;;0.13;;
30872;SDS011;17579;42.690;2.586;2024-02-16T09:10:17;0.10;;;0.10;;
30872;SDS011;17579;42.690;2.586;2024-02-16T09:12:43;0.00;;;0.00;;
30872;SDS011;17579;42.690;2.586;2024-02-16T09:15:19;0.00;;;0.00;;
30872;SDS011;17579;42.690;2.586;2024-02-16T09:17:53;0.10;;;0.10;;
30872;SDS011;17579;42.690;2.586;2024-02-16T09:20:19;0.10;;;0.10;;
30872;SDS011;17579;42.690;2.586;2024-02-16T09:22:47;0.10;;;0.10;;
30872;SDS011;17579;42.690;2.586;2024-02-16T09:25:16;0.10;;;0.10;;
30872;SDS011;17579;42.690;2.586;2024-02-16T09:27:43;0.30;;;0.10;;
30872;SDS011;17579;42.690;2.586;2024-02-16T09:30:19;0.10;;;0.10;;
30872;SDS011;17579;42.690;2.586;2024-02-16T09:32:49;0.10;;;0.10;;
30872;SDS011;17579;42.690;2.586;2024-02-16T09:35:40;0.10;;;0.10;;
30872;SDS011;17579;42.690;2.586;2024-02-16T09:38:06;0.10;;;0.10;;
30872;SDS011;17579;42.690;2.586;2024-02-16T09:40:52;0.10;;;0.10;;
30872;SDS011;17579;42.690;2.586;2024-02-16T09:43:27;0.10;;;0.10;;
30872;SDS011;17579;42.690;2.586;2024-02-16T09:46:00;0.10;;;0.10;;
30872;SDS011;17579;42.690;2.586;2024-02-16T09:48:26;0.10;;;0.10;;
30872;SDS011;17579;42.690;2.586;2024-02-16T09:50:57;0.00;;;0.00;;
30872;SDS011;17579;42.690;2.586;2024-02-16T09:53:30;0.10;;;0.10;;
30872;SDS011;17579;42.690;2.586;2024-02-16T09:55:58;0.22;;;0.10;;
30872;SDS011;17579;42.690;2.586;2024-02-16T09:58:26;0.08;;;0.08;;
30872;SDS011;17579;42.690;2.586;2024-02-16T10:00:54;0.20;;;0.10;;
30872;SDS011;17579;42.690;2.586;2024-02-16T10:03:23;0.00;;;0.00;;
30872;SDS011;17579;42.690;2.586;2024-02-16T10:06:27;0.00;;;0.00;;
30872;SDS011;17579;42.690;2.586;2024-02-16T10:08:55;0.05;;;0.05;;
30872;SDS011;17579;42.690;2.586;2024-02-16T10:11:44;0.10;;;0.10;;
30872;SDS011;17579;42.690;2.586;2024-02-16T10:14:20;0.00;;;0.00;;
30872;SDS011;17579;42.690;2.586;2024-02-16T10:16:47;0.20;;;0.10;;
30872;SDS011;17579;42.690;2.586;2024-02-16T10:19:41;0.30;;;0.20;;
30872;SDS011;17579;42.690;2.586;2024-02-16T10:22:10;0.10;;;0.10;;
30872;SDS011;17579;42.690;2.586;2024-02-16T10:24:36;0.10;;;0.10;;
30872;SDS011;17579;42.690;2.586;2024-02-16T10:27:05;0.10;;;0.10;;
30872;SDS011;17579;42.690;2.586;2024-02-16T10:29:39;0.10;;;0.10;;
30872;SDS011;17579;42.690;2.586;2024-02-16T10:32:17;0.38;;;0.10;;
30872;SDS011;17579;42.690;2.586;2024-02-16T10:34:47;0.25;;;0.10;;
30872;SDS011;17579;42.690;2.586;2024-02-16T10:37:16;0.10;;;0.10;;
30872;SDS011;17579;42.690;2.586;2024-02-16T10:39:48;1.27;;;0.10;;
30872;SDS011;17579;42.690;2.586;2024-02-16T10:42:34;0.17;;;0.17;;
30872;SDS011;17579;42.690;2.586;2024-02-16T10:45:01;0.10;;;0.10;;
30872;SDS011;17579;42.690;2.586;2024-02-16T10:47:33;0.15;;;0.10;;
30872;SDS011;17579;42.690;2.586;2024-02-16T10:50:06;0.00;;;0.00;;
30872;SDS011;17579;42.690;2.586;2024-02-16T10:52:37;0.35;;;0.20;;
30872;SDS011;17579;42.690;2.586;2024-02-16T10:55:10;0.20;;;0.20;;
30872;SDS011;17579;42.690;2.586;2024-02-16T10:57:36;0.90;;;0.10;;
30872;SDS011;17579;42.690;2.586;2024-02-16T11:00:09;0.10;;;0.10;;
30872;SDS011;17579;42.690;2.586;2024-02-16T11:02:53;0.20;;;0.20;;
30872;SDS011;17579;42.690;2.586;2024-02-16T11:08:16;0.17;;;0.17;;
30872;SDS011;17579;42.690;2.586;2024-02-16T11:14:15;0.15;;;0.15;;
30872;SDS011;17579;42.690;2.586;2024-02-16T11:16:44;0.20;;;0.20;;
30872;SDS011;17579;42.690;2.586;2024-02-16T11:19:13;0.35;;;0.30;;
30872;SDS011;17579;42.690;2.586;2024-02-16T11:21:54;0.10;;;0.10;;
30872;SDS011;17579;42.690;2.586;2024-02-16T11:24:42;0.20;;;0.20;;
30872;SDS011;17579;42.690;2.586;2024-02-16T11:27:22;0.20;;;0.20;;
30872;SDS011;17579;42.690;2.586;2024-02-16T11:29:48;0.10;;;0.10;;
30872;SDS011;17579;42.690;2.586;2024-02-16T11:32:18;0.20;;;0.20;;
30872;SDS011;17579;42.690;2.586;2024-02-16T11:34:50;0.13;;;0.13;;
30872;SDS011;17579;42.690;2.586;2024-02-16T11:37:36;0.13;;;0.13;;
30872;SDS011;17579;42.690;2.586;2024-02-16T11:40:05;0.20;;;0.20;;
30872;SDS011;17579;42.690;2.586;2024-02-16T11:42:33;0.70;;;0.30;;
30872;SDS011;17579;42.690;2.586;2024-02-16T11:45:04;0.32;;;0.20;;
30872;SDS011;17579;42.690;2.586;2024-02-16T11:47:51;0.20;;;0.20;;
30872;SDS011;17579;42.690;2.586;2024-02-16T11:50:28;0.20;;;0.20;;
30872;SDS011;17579;42.690;2.586;2024-02-16T11:52:55;0.20;;;0.20;;
30872;SDS011;17579;42.690;2.586;2024-02-16T11:55:24;0.17;;;0.17;;
30872;SDS011;17579;42.690;2.586;2024-02-16T11:57:53;0.20;;;0.10;;
30872;SDS011;17579;42.690;2.586;2024-02-16T12:00:22;0.10;;;0.10;;
30872;SDS011;17579;42.690;2.586;2024-02-16T12:03:01;0.25;;;0.20;;
30872;SDS011;17579;42.690;2.586;2024-02-16T12:05:36;0.17;;;0.17;;
30872;SDS011;17579;42.690;2.586;2024-02-16T12:08:05;0.10;;;0.10;;
30872;SDS011;17579;42.690;2.586;2024-02-16T12:10:31;0.15;;;0.15;;
30872;SDS011;17579;42.690;2.586;2024-02-16T12:12:59;0.17;;;0.17;;
30872;SDS011;17579;42.690;2.586;2024-02-16T12:15:25;0.10;;;0.10;;
30872;SDS011;17579;42.690;2.586;2024-02-16T12:18:02;0.10;;;0.10;;
30872;SDS011;17579;42.690;2.586;2024-02-16T12:20:43;0.10;;;0.10;;
30872;SDS011;17579;42.690;2.586;2024-02-16T12:23:12;0.30;;;0.20;;
30872;SDS011;17579;42.690;2.586;2024-02-16T12:25:54;0.10;;;0.10;;
30872;SDS011;17579;42.690;2.586;2024-02-16T12:28:38;0.13;;;0.13;;
30872;SDS011;17579;42.690;2.586;2024-02-16T12:31:05;0.10;;;0.10;;
30872;SDS011;17579;42.690;2.586;2024-02-16T12:33:56;0.20;;;0.20;;
30872;SDS011;17579;42.690;2.586;2024-02-16T12:36:30;0.13;;;0.13;;
30872;SDS011;17579;42.690;2.586;2024-02-16T12:39:09;0.10;;;0.10;;
30872;SDS011;17579;42.690;2.586;2024-02-16T12:41:41;2.05;;;0.30;;
30872;SDS011;17579;42.690;2.586;2024-02-16T12:44:28;0.38;;;0.17;;
30872;SDS011;17579;42.690;2.586;2024-02-16T12:46:53;0.20;;;0.20;;
30872;SDS011;17579;42.690;2.586;2024-02-16T12:49:28;0.10;;;0.10;;
30872;SDS011;17579;42.690;2.586;2024-02-16T12:52:04;0.20;;;0.20;;
30872;SDS011;17579;42.690;2.586;2024-02-16T12:54:30;0.20;;;0.20;;
30872;SDS011;17579;42.690;2.586;2024-02-16T12:56:57;0.20;;;0.20;;
30872;SDS011;17579;42.690;2.586;2024-02-16T12:59:28;0.00;;;0.00;;
30872;SDS011;17579;42.690;2.586;2024-02-16T13:02:11;0.00;;;0.00;;
30872;SDS011;17579;42.690;2.586;2024-02-16T13:04:54;0.10;;;0.10;;
30872;SDS011;17579;42.690;2.586;2024-02-16T13:07:31;0.20;;;0.20;;
30872;SDS011;17579;42.690;2.586;2024-02-16T13:10:16;0.20;;;0.20;;
30872;SDS011;17579;42.690;2.586;2024-02-16T13:12:44;0.20;;;0.20;;
30872;SDS011;17579;42.690;2.586;2024-02-16T13:15:13;0.10;;;0.10;;
30872;SDS011;17579;42.690;2.586;2024-02-16T13:17:45;0.35;;;0.30;;
30872;SDS011;17579;42.690;2.586;2024-02-16T13:20:10;0.10;;;0.10;;
30872;SDS011;17579;42.690;2.586;2024-02-16T13:22:38;0.10;;;0.10;;
30872;SDS011;17579;42.690;2.586;2024-02-16T13:25:12;0.10;;;0.10;;
30872;SDS011;17579;42.690;2.586;2024-02-16T13:27:43;0.43;;;0.20;;
30872;SDS011;17579;42.690;2.586;2024-02-16T13:30:17;0.20;;;0.20;;
30872;SDS011;17579;42.690;2.586;2024-02-16T13:32:43;0.10;;;0.10;;
30872;SDS011;17579;42.690;2.586;2024-02-16T13:35:08;0.17;;;0.17;;
30872;SDS011;17579;42.690;2.586;2024-02-16T13:37:53;0.20;;;0.17;;
30872;SDS011;17579;42.690;2.586;2024-02-16T13:40:28;0.13;;;0.13;;
30872;SDS011;17579;42.690;2.586;2024-02-16T13:43:05;0.10;;;0.10;;
30872;SDS011;17579;42.690;2.586;2024-02-16T13:45:48;0.20;;;0.20;;
30872;SDS011;17579;42.690;2.586;2024-02-16T13:48:15;0.28;;;0.20;;
30872;SDS011;17579;42.690;2.586;2024-02-16T13:50:47;0.22;;;0.20;;
30872;SDS011;17579;42.690;2.586;2024-02-16T13:53:18;0.10;;;0.10;;
30872;SDS011;17579;42.690;2.586;2024-02-16T13:55:49;0.10;;;0.10;;
30872;SDS011;17579;42.690;2.586;2024-02-16T13:58:29;0.10;;;0.10;;
30872;SDS011;17579;42.690;2.586;2024-02-16T14:01:07;0.30;;;0.20;;
30872;SDS011;17579;42.690;2.586;2024-02-16T14:03:35;0.10;;;0.10;;
30872;SDS011;17579;42.690;2.586;2024-02-16T14:06:12;0.17;;;0.10;;
30872;SDS011;17579;42.690;2.586;2024-02-16T14:08:40;0.40;;;0.20;;
30872;SDS011;17579;42.690;2.586;2024-02-16T14:11:13;0.00;;;0.00;;
30872;SDS011;17579;42.690;2.586;2024-02-16T14:13:53;0.10;;;0.10;;
30872;SDS011;17579;42.690;2.586;2024-02-16T14:16:21;0.10;;;0.10;;
30872;SDS011;17579;42.690;2.586;2024-02-16T14:19:04;0.08;;;0.08;;
30872;SDS011;17579;42.690;2.586;2024-02-16T14:21:29;0.10;;;0.10;;
30872;SDS011;17579;42.690;2.586;2024-02-16T14:23:58;0.10;;;0.10;;
30872;SDS011;17579;42.690;2.586;2024-02-16T14:26:24;0.10;;;0.10;;
30872;SDS011;17579;42.690;2.586;2024-02-16T14:28:51;0.10;;;0.10;;
30872;SDS011;17579;42.690;2.586;2024-02-16T14:31:30;0.10;;;0.10;;
30872;SDS011;17579;42.690;2.586;2024-02-16T14:33:59;0.10;;;0.10;;
30872;SDS011;17579;42.690;2.586;2024-02-16T14:36:28;0.10;;;0.10;;
30872;SDS011;17579;42.690;2.586;2024-02-16T14:38:53;0.10;;;0.10;;
30872;SDS011;17579;42.690;2.586;2024-02-16T14:41:19;0.20;;;0.20;;
30872;SDS011;17579;42.690;2.586;2024-02-16T14:43:54;0.55;;;0.20;;
30872;SDS011;17579;42.690;2.586;2024-02-16T14:46:46;0.15;;;0.15;;
30872;SDS011;17579;42.690;2.586;2024-02-16T14:49:11;2.70;;;0.20;;
30872;SDS011;17579;42.690;2.586;2024-02-16T14:51:46;3.20;;;0.20;;
30872;SDS011;17579;42.690;2.586;2024-02-16T14:54:12;0.20;;;0.20;;
30872;SDS011;17579;42.690;2.586;2024-02-16T14:56:38;0.10;;;0.10;;
30872;SDS011;17579;42.690;2.586;2024-02-16T14:59:04;0.20;;;0.20;;
30872;SDS011;17579;42.690;2.586;2024-02-16T15:01:32;0.13;;;0.10;;
30872;SDS011;17579;42.690;2.586;2024-02-16T15:03:58;0.20;;;0.17;;
30872;SDS011;17579;42.690;2.586;2024-02-16T15:06:29;0.10;;;0.10;;
30872;SDS011;17579;42.690;2.586;2024-02-16T15:09:03;0.20;;;0.20;;
30872;SDS011;17579;42.690;2.586;2024-02-16T15:11:43;0.80;;;0.20;;
30872;SDS011;17579;42.690;2.586;2024-02-16T15:14:16;1.00;;;0.25;;
30872;SDS011;17579;42.690;2.586;2024-02-16T15:16:45;0.52;;;0.28;;
30872;SDS011;17579;42.690;2.586;2024-02-16T15:19:11;0.40;;;0.25;;
30872;SDS011;17579;42.690;2.586;2024-02-16T15:21:37;2.05;;;0.60;;
30872;SDS011;17579;42.690;2.586;2024-02-16T15:24:03;0.47;;;0.35;;